Tropical Cyclones
[Index]
Main Index Home Page Stock Weather Photos Extreme Storms Discussion Storm News and Storm Chasing Reports Tropical Cyclones / Hurricanes / Typhoons Weather Data and Links Wild Fires / Bushfires Weather Observation Techniques Weather Picture Catalogue Tornado Pictures and Reports Stock Video Footage and DVDs for sale
Season 1964-1965 Tropical Cyclone JOAN Track Map
Season 1964-1965 Summaries: [BoM-AU] [JTWC-AU] [JTWC-SIO] [JTWC-SPAC] [JTWC-SH]
<<- Previous TC | JTWC 1964-1965 Season | Next TC ->>

click for intensity scale information  Lat/long Grid: Show Hide

 Date Labels: Show Hide

Joint Typhoon Warning Centre Cyclone Data

Name: JOAN
Number: 573 / 6536

04 Mar 1965 12:00 UTC to 14 Mar 1965 18:00 UTC

    date/time    lat    long     hPa   cat  kts
1965-03-04 12   17.7   126.3                              
1965-03-04 18   17.6   125.8                              
1965-03-05 00   17.5   125.2                              
1965-03-05 06   17.1   124.1                              
1965-03-05 12   16.6   123.2                              
1965-03-05 18   15.6   123.2                              
1965-03-06 00   14.8   122.9                              
1965-03-06 06   14.7   122.3                              
1965-03-06 12   15.0   121.7                              
1965-03-06 18   15.4   121.3                              
1965-03-07 00   15.9   120.7                              
1965-03-07 06   16.1   120.0                              
1965-03-07 12   16.3   119.3                              
1965-03-07 18   16.0   118.6                              
1965-03-08 00   16.0   117.9                              
1965-03-08 06   16.4   117.7                              
1965-03-08 12   16.9   117.6                              
1965-03-08 18   17.3   117.2                              
1965-03-09 00   17.7   116.8                              
1965-03-09 06   18.0   115.9                              
1965-03-09 12   18.4   115.5                              
1965-03-09 18   19.1   115.7                              
1965-03-10 00   19.8   115.9                              
1965-03-10 06   20.4   116.1                              
1965-03-10 12   20.9   116.2                              
1965-03-10 18   21.4   116.4                              
1965-03-11 00   21.7   116.9                              
1965-03-11 06   21.7   117.7                              
1965-03-11 12   21.6   118.5                              
1965-03-11 18   21.6   119.3                              
1965-03-12 00   21.9   120.1                              
1965-03-12 06   22.3   119.5                              
1965-03-12 12   22.8   118.5                              
1965-03-12 18   23.3   117.6                              
1965-03-13 00   23.8   116.7                              
1965-03-13 06   24.3   115.6                              
1965-03-13 12   24.9   114.5                              
1965-03-13 18   25.6   113.6                              
1965-03-14 00   26.8   112.9                              
1965-03-14 06   28.5   113.2                              
1965-03-14 12   30.3   114.2                              
1965-03-14 18   31.9   115.3                              
Winds are 1-min average.

Tropical cyclone tracks developed by Michael Bath using data from the Joint Typhoon Warning Centre Best Tracks and Google Maps.


[Australian Severe Weather index] [Copyright Notice] [Email Contacts] [Search This Site] [Privacy Policy]
Document: tropical_cyclone_joan.htm Updated: 18 September 2016